createdAt,value
2023-04-13T00:02:18.470Z,59.29
2023-04-13T00:07:20.062Z,59.86
2023-04-13T00:12:21.561Z,58.63
2023-04-13T00:17:23.054Z,59.31
2023-04-13T00:22:27.589Z,59.48
2023-04-13T00:27:29.075Z,59.68
2023-04-13T00:32:34.407Z,59.21
2023-04-13T00:37:36.026Z,59.13
2023-04-13T00:42:37.602Z,59.18
2023-04-13T00:47:40.314Z,59.54
2023-04-13T00:52:42.298Z,59.35
2023-04-13T00:57:43.784Z,59.33
2023-04-13T01:02:45.534Z,59.22
2023-04-13T01:08:05.850Z,59.26
2023-04-13T01:13:07.426Z,59.99
2023-04-13T01:18:13.661Z,59.54
2023-04-13T01:23:41.154Z,57.37
2023-04-13T01:28:43.136Z,55.97
2023-04-13T01:33:45.029Z,55.69
2023-04-13T01:38:46.860Z,56.32
2023-04-13T01:43:50.332Z,54.82
2023-04-13T01:48:56.875Z,55.24
2023-04-13T01:54:13.235Z,53.87
2023-04-13T01:59:17.981Z,53.75
2023-04-13T02:04:19.674Z,53.68
2023-04-13T02:09:21.347Z,51.98
2023-04-13T02:14:27.220Z,51.37
2023-04-13T02:19:28.763Z,51.88
2023-04-13T02:24:30.222Z,51.20
2023-04-13T02:29:31.730Z,51.66
2023-04-13T02:34:33.443Z,53.35
2023-04-13T02:39:35.240Z,54.25
2023-04-13T02:44:37.910Z,54.62
2023-04-13T02:49:40.139Z,54.47
2023-04-13T02:54:55.135Z,53.26
2023-04-13T03:00:01.462Z,52.23
2023-04-13T03:05:14.949Z,53.48
2023-04-13T03:10:16.549Z,53.01
2023-04-13T03:15:19.878Z,52.61
2023-04-13T03:20:21.974Z,52.17
2023-04-13T03:25:31.181Z,52.86
2023-04-13T03:30:34.683Z,53.14
2023-04-13T03:35:37.092Z,53.54
2023-04-13T03:40:42.279Z,53.99
2023-04-13T03:45:44.818Z,54.41
2023-04-13T03:50:49.251Z,54.24
2023-04-13T03:55:55.730Z,54.29
2023-04-13T04:00:57.322Z,55.31
2023-04-13T04:06:13.819Z,55.53
2023-04-13T04:11:21.669Z,55.14
2023-04-13T04:16:23.111Z,55.49
2023-04-13T04:21:30.979Z,55.37
2023-04-13T04:26:32.502Z,55.09
2023-04-13T04:31:37.400Z,55.02
2023-04-13T04:36:43.814Z,55.06
2023-04-13T04:41:45.304Z,55.46
2023-04-13T04:46:47.595Z,55.17
2023-04-13T04:51:49.934Z,55.42
2023-04-13T04:56:54.012Z,54.04
2023-04-13T05:01:56.176Z,53.52
2023-04-13T05:06:57.826Z,52.57
2023-04-13T05:12:00.719Z,51.43
2023-04-13T05:17:02.329Z,50.91
2023-04-13T05:22:08.736Z,50.51
2023-04-13T05:27:17.116Z,49.24
2023-04-13T05:32:18.747Z,49.51
2023-04-13T05:37:22.546Z,49.67
2023-04-13T05:42:24.212Z,49.61
2023-04-13T05:47:26.240Z,49.45
2023-04-13T05:52:32.918Z,48.87
2023-04-13T05:57:34.552Z,49.92
2023-04-13T06:02:40.674Z,48.00
2023-04-13T06:07:45.749Z,49.36
2023-04-13T06:12:47.205Z,49.68
2023-04-13T06:17:51.526Z,49.16
2023-04-13T06:22:53.070Z,48.18
2023-04-13T06:27:56.796Z,47.97
2023-04-13T06:32:58.800Z,47.24
2023-04-13T06:38:02.540Z,46.09
2023-04-13T06:43:26.434Z,45.43
2023-04-13T06:48:46.893Z,46.61
2023-04-13T06:53:50.571Z,44.46
2023-04-13T06:58:52.858Z,45.76
2023-04-13T07:03:55.085Z,44.88
2023-04-13T07:08:58.137Z,45.22
2023-04-13T07:14:01.240Z,43.57
2023-04-13T07:19:02.771Z,44.16
2023-04-13T07:24:05.138Z,43.81
2023-04-13T07:29:09.426Z,43.00
2023-04-13T07:34:11.892Z,43.70
2023-04-13T07:39:19.299Z,44.29
2023-04-13T07:44:23.327Z,42.71
2023-04-13T07:49:24.920Z,43.19
2023-04-13T07:54:27.945Z,42.12
2023-04-13T07:59:29.616Z,41.79
2023-04-13T08:04:33.620Z,41.79
2023-04-13T08:09:40.113Z,40.97
2023-04-13T08:14:41.782Z,39.87
2023-04-13T08:19:44.727Z,40.84
2023-04-13T08:24:48.796Z,41.20
2023-04-13T08:29:54.769Z,39.22
2023-04-13T08:34:56.822Z,41.02
2023-04-13T08:39:58.450Z,39.33
2023-04-13T08:45:00.886Z,38.34
2023-04-13T08:50:03.495Z,38.59
2023-04-13T08:55:21.086Z,38.25
2023-04-13T09:00:25.086Z,37.62
2023-04-13T09:05:28.448Z,37.28
2023-04-13T09:10:34.589Z,37.68
2023-04-13T09:15:36.087Z,38.63
2023-04-13T09:20:58.013Z,43.48
2023-04-13T09:26:09.259Z,45.11
2023-04-13T09:31:13.133Z,46.21
2023-04-13T09:36:17.176Z,47.06
2023-04-13T09:41:33.446Z,50.24
2023-04-13T09:46:34.970Z,48.66
2023-04-13T09:51:40.837Z,46.99
2023-04-13T09:56:47.553Z,43.95
2023-04-13T10:01:50.236Z,43.57
2023-04-13T10:06:51.981Z,41.89
2023-04-13T10:11:55.926Z,41.33
2023-04-13T10:17:16.287Z,40.58
2023-04-13T10:22:19.221Z,42.41
2023-04-13T10:27:22.250Z,40.76
2023-04-13T10:32:27.151Z,39.51
2023-04-13T10:37:28.739Z,39.37
2023-04-13T10:42:50.785Z,36.34
2023-04-13T10:47:55.005Z,36.33
2023-04-13T10:52:57.363Z,37.62
2023-04-13T10:58:00.411Z,36.25
2023-04-13T11:03:03.231Z,35.07
2023-04-13T11:08:05.602Z,37.64
2023-04-13T11:13:07.075Z,37.57
2023-04-13T11:18:08.628Z,35.83
2023-04-13T11:23:14.484Z,35.48
2023-04-13T11:28:15.968Z,35.87
2023-04-13T11:33:24.349Z,34.98
2023-04-13T11:38:26.576Z,34.71
2023-04-13T11:43:28.136Z,35.75
2023-04-13T11:48:29.698Z,35.29
2023-04-13T11:53:31.625Z,35.04
2023-04-13T11:58:33.252Z,35.52
2023-04-13T12:03:51.778Z,37.09
2023-04-13T12:09:10.044Z,36.34
2023-04-13T12:19:28.132Z,33.38
2023-04-13T12:24:37.875Z,34.96
2023-04-13T12:29:40.291Z,33.79
2023-04-13T12:34:42.684Z,34.75
2023-04-13T12:39:44.209Z,34.21
2023-04-13T12:44:45.734Z,33.93
2023-04-13T12:49:47.233Z,34.36
2023-04-13T12:54:48.692Z,34.99
2023-04-13T12:59:50.111Z,34.00
2023-04-13T13:04:51.973Z,33.45
2023-04-13T13:09:53.512Z,31.60
2023-04-13T13:14:55.008Z,32.84
2023-04-13T13:19:56.788Z,33.06
2023-04-13T13:24:58.294Z,33.53
2023-04-13T13:29:59.773Z,39.03
2023-04-13T13:35:01.263Z,40.73
2023-04-13T13:40:03.031Z,41.64
2023-04-13T13:45:04.952Z,40.88
2023-04-13T13:50:07.085Z,41.78
2023-04-13T13:55:13.894Z,41.16
2023-04-13T14:00:15.746Z,40.91
2023-04-13T14:05:17.305Z,40.80
2023-04-13T14:10:18.864Z,40.48
2023-04-13T14:15:20.351Z,41.45
2023-04-13T14:20:21.755Z,40.87
2023-04-13T14:25:23.642Z,39.61
2023-04-13T14:30:27.469Z,40.54
2023-04-13T14:35:29.755Z,40.00
2023-04-13T14:40:31.275Z,39.60
2023-04-13T14:45:32.718Z,39.87
2023-04-13T14:50:38.148Z,39.53
2023-04-13T14:55:39.679Z,38.54
2023-04-13T15:00:41.259Z,39.22
2023-04-13T15:05:44.583Z,40.18
2023-04-13T15:10:46.134Z,37.29
2023-04-13T15:15:47.585Z,37.26
2023-04-13T15:20:49.048Z,37.45
2023-04-13T15:25:50.468Z,37.45
2023-04-13T15:30:51.908Z,37.48
2023-04-13T15:35:53.329Z,38.42
2023-04-13T15:40:54.834Z,38.37
2023-04-13T15:45:56.289Z,38.65
2023-04-13T15:51:01.087Z,39.59
2023-04-13T15:56:02.588Z,42.92
2023-04-13T16:01:05.944Z,45.48
2023-04-13T16:06:07.938Z,46.97
2023-04-13T16:11:09.435Z,47.00
2023-04-13T16:16:10.932Z,47.85
2023-04-13T16:21:12.412Z,50.15
2023-04-13T16:26:13.835Z,49.86
2023-04-13T16:31:15.309Z,49.82
2023-04-13T16:36:16.735Z,49.99
2023-04-13T16:41:18.162Z,51.92
2023-04-13T16:46:19.556Z,52.34
2023-04-13T16:51:21.113Z,52.02
2023-04-13T16:56:22.728Z,51.84
2023-04-13T17:01:24.230Z,51.80
2023-04-13T17:06:25.940Z,52.99
2023-04-13T17:11:27.499Z,52.41
2023-04-13T17:16:29.003Z,53.06
2023-04-13T17:21:30.446Z,53.59
2023-04-13T17:26:31.867Z,53.93
2023-04-13T17:31:33.365Z,53.31
2023-04-13T17:36:34.841Z,53.92
2023-04-13T17:41:36.366Z,53.00
2023-04-13T17:46:37.845Z,54.56
2023-04-13T17:51:39.282Z,53.68
2023-04-13T17:56:40.860Z,53.12
2023-04-13T18:01:42.881Z,53.01
2023-04-13T18:06:44.385Z,53.50
2023-04-13T18:11:45.814Z,52.73
2023-04-13T18:16:47.342Z,53.59
2023-04-13T18:21:48.799Z,53.32
2023-04-13T18:26:50.293Z,54.15
2023-04-13T18:31:51.807Z,53.79
2023-04-13T18:36:53.282Z,55.06
2023-04-13T18:41:54.750Z,55.42
2023-04-13T18:46:56.231Z,54.36
2023-04-13T18:51:57.802Z,54.42
2023-04-13T18:56:59.300Z,55.59
2023-04-13T19:02:00.864Z,55.18
2023-04-13T19:07:02.451Z,55.06
2023-04-13T19:12:05.460Z,55.58
2023-04-13T19:17:06.891Z,56.04
2023-04-13T19:22:08.353Z,56.53
2023-04-13T19:27:09.797Z,56.34
2023-04-13T19:32:12.071Z,55.40
2023-04-13T19:37:13.809Z,56.66
2023-04-13T19:42:15.368Z,57.26
2023-04-13T19:47:17.188Z,56.52
2023-04-13T19:52:18.623Z,56.63
2023-04-13T19:57:20.068Z,55.77
2023-04-13T20:02:21.904Z,56.58
2023-04-13T20:07:23.468Z,56.15
2023-04-13T20:12:27.592Z,55.99
2023-04-13T20:17:29.254Z,56.23
2023-04-13T20:22:30.715Z,55.59
2023-04-13T20:27:32.138Z,55.57
2023-04-13T20:32:33.648Z,55.51
2023-04-13T20:37:35.756Z,55.01
2023-04-13T20:42:37.374Z,55.35
2023-04-13T20:47:38.845Z,55.35
2023-04-13T20:52:40.280Z,55.36
2023-04-13T20:57:41.680Z,55.07
2023-04-13T21:02:43.441Z,55.44
2023-04-13T21:07:45.140Z,55.79
2023-04-13T21:12:46.594Z,56.22
2023-04-13T21:17:48.022Z,55.71
2023-04-13T21:22:49.515Z,55.29
2023-04-13T21:27:50.976Z,56.62
2023-04-13T21:32:52.415Z,55.77
2023-04-13T21:37:53.879Z,54.04
2023-04-13T21:42:55.365Z,55.05
2023-04-13T21:47:56.814Z,55.82
2023-04-13T21:52:58.331Z,56.50
2023-04-13T21:57:59.781Z,56.91
2023-04-13T22:03:01.663Z,56.27
2023-04-13T22:08:03.359Z,56.89
2023-04-13T22:13:04.854Z,56.56
2023-04-13T22:18:06.394Z,56.28
2023-04-13T22:23:07.851Z,55.79
2023-04-13T22:28:09.502Z,55.87
2023-04-13T22:33:11.012Z,55.59
2023-04-13T22:38:12.435Z,55.83
2023-04-13T22:43:13.912Z,55.67
2023-04-13T22:48:15.334Z,56.17
2023-04-13T22:53:16.824Z,56.17
2023-04-13T22:58:18.448Z,55.96
2023-04-13T23:03:20.104Z,56.12
2023-04-13T23:08:21.762Z,56.43
2023-04-13T23:13:23.237Z,56.55
2023-04-13T23:18:24.726Z,56.27
2023-04-13T23:23:26.220Z,56.45
2023-04-13T23:28:27.696Z,56.17
2023-04-13T23:33:29.128Z,56.39
2023-04-13T23:38:31.483Z,56.13
2023-04-13T23:43:32.992Z,56.22
2023-04-13T23:48:34.399Z,56.65
2023-04-13T23:53:35.826Z,57.18
2023-04-13T23:58:37.240Z,56.31
